Предлагаем Вашему вниманию английскую версию страницы: AUTOTAF.ME 37395 - aviation weather forecast Kutaisi

AUTOTAF 37395 - авиапрогноз Кутаиси

Сегодня рассвет 03:58 UTC, восход солнца 04:28 UTC,
местный полдень 09:22 UTC, заход солнца 14:15 UTC,
наступление темноты 14:45 UTC.

Краткий прогноз 37395 на 9 часов

AUTOTAF.ME 37395 262000Z 2621/2706 03004MPS CAVOK

Детальный прогноз 37395 на 24 часа

AUTOTAF.ME 37395 262000Z 2621/2721 03004MPS 9999 BKN159 TX15/2712Z TN06/2621Z     
  BECMG 2707/2709 08004MPS

Подробный табличный прогноз

Время (UTC) miniAUTOTAF на 3 ч WX FZLVL
M AGL
ICE TURB Т
(°С)
Тd
(°С)
f(%) QNH
(гПа)
WIND/T
18 04003MPS 9999 OVC183 2250 6 -2 56 1020 ...
21 03004MPS 9999 BKN159 2400 MOD FL190/FL200 6 -2 57 1020 ...
27.01.2021
00 04004MPS 9999 OVC137 2400 MOD FL150/FL170 6 -2 56 1018 ...
03 04004MPS 9999 OVC150 2550 MOD FL190/FL200 MOD FL110/FL120 7 -2 54 1017 ...
06 05005MPS 9999 BKN170 2700 10 -2 43 1014 ...
09 08004MPS 9999 OVC183 2850 MOD FL190/FL200 MOD FL120/FL130 13 -2 36 1012 ...
12 10003MPS 9999 BKN190 2700 15 -0 35 1010 ...
15 05004MPS 9999 OVC158 2550 MOD FL170/FL180 MOD FL110/FL120 13 -1 40 1011 ...
18 05005MPS 9999 OVC136 2550 MOD FL150/FL170 MOD FL110/FL120 12 -1 40 1011 ...
21 05005MPS 9999 BKN136 2700 MOD FL110/FL150 11 -2 40 1010 ...
28.01.2021
00 05005MPS 9999 OVC135 2700 MOD FL150/FL160 MOD FL110/FL150 12 -2 40 1008 ...
03 05005MPS 9999 VCSH OVC095CB VCSH 2550 MOD FL150/FL160 MOD FL120/FL130 12 1 47 1007 ...
06 06004MPS 9999 VCSH OVC100CB VCSH 2550 MOD FL150/FL160 MOD FL120/FL150 13 1 45 1007 ...
09 VRB02MPS 9999 OVC114 2250 MOD FL110/FL120 16 2 39 1006 ...
12 VRB02MPS 9999 OVC085 1950 FBL FL110/FL190 MOD FL50/FL70 16 2 39 1007 ...
15 VRB02MPS 3000 BR BKN005 OVC010CB BR 1650 MOD FL70/FL90 MOD FL50/FL60 9 8 95 1010 ...


Широта 42.3°, долгота 42.6°, высота 116 м абс.
Средняя высота рельефа местности 799 м абс.
Прогнозы обновляются четыре раза в сутки: в 02, 08, 14, 20 ч всемирного времени.


Выбрать прогноз по другой модели Кутаиси
Онлайн-сводка гроз по Кутаиси (для РФ и ближнего зарубежья)
Карта фактических гроз в окрестностях Кутаиси
Динамические прогностические карты (ventusky.com)
Прогностическая карта высоты нижней границы облаков по Кутаиси (windy.com)
Выбрать другой город

Прогноз предназначен для личного научно-познавательного использования частными лицами
и не предназначен для принятия важных решений и выполнения реальных полётов воздушных судов

При копировании или ином использовании любых материалов данного сайта ссылка на © meteocenter.asia обязательна.

0.67/1.1